Alpine Link — V7SZ7 — position and weather

sailwx.info

Track history (hours):
 
Tides and Currents Weather Stations Pressure Air Temp Water Temp Dewpoint Dewpoint Depression Visibility Wind Speed Wind Dir Waves Ship Positions

Alpine Link

Last reported at 2015-Mar-21 02:12 UTC. Time now 2015-Mar-27 08:19 UTC.
Position N 35°58' W 005°36'.

Length 183 m; draft 9.8 m.

Type: Tanker. MMSI: 538003758.

Date/timePositionNaut miles runAvg speedWind from/ knotsBaromVisibWave heightAir tempDewpointWater temp
2015-Mar-21 02:12N 35°58' W 005°36'6 8.7
2015-Mar-21 01:33N 35°56' W 005°30'0 0.0
2015-Mar-19 13:13N 35°56' W 005°30'710.3
2015-Mar-19 12:33N 36°00' W 005°23'1110.6
2015-Mar-19 11:33N 36°03' W 005°10'3 2.4
2015-Mar-19 10:30N 36°00' W 005°10'1 1.4
2015-Mar-19 09:33N 35°59' W 005°11'2 1.7
2015-Mar-19 08:33N 35°58' W 005°11'10 9.8
2015-Mar-19 07:33N 35°58' W 005°23'  
2015-Mar-15 19:22N 33°55' W 007°33'1810.0
2015-Mar-15 17:33N 34°12' W 007°42'14910.6
2015-Mar-15 03:33N 35°58' W 005°36'1110.6
2015-Mar-15 02:33N 36°00' W 005°23'1111.1
2015-Mar-15 01:33N 36°03' W 005°10'  
2015-Mar-12 00:34N 36°38' E 013°45'1212.2
2015-Mar-11 23:33N 36°36' E 013°60'1212.0
2015-Mar-11 22:33N 36°32' E 014°14'1312.1
2015-Mar-11 21:28N 36°29' E 014°30'2811.9
2015-Mar-11 19:07N 36°28' E 015°04'  
Track history (hours):
 
Tides and Currents Weather Stations Pressure Air Temp Water Temp Dewpoint Dewpoint Depression Visibility Wind Speed Wind Dir Waves Ship Positions

Alpine Link

Last reported at 2015-Mar-21 02:12 UTC. Time now 2015-Mar-27 08:19 UTC.
Position N 35°58' W 005°36'.

Length 183 m; draft 9.8 m.

Type: Tanker. MMSI: 538003758.

Date/timePositionNaut miles runAvg speedWind from/ knotsBaromVisibWave heightAir tempDewpointWater temp
2015-Mar-21 02:12N 35°58' W 005°36'6 8.7
2015-Mar-21 01:33N 35°56' W 005°30'0 0.0
2015-Mar-19 13:13N 35°56' W 005°30'710.3
2015-Mar-19 12:33N 36°00' W 005°23'1110.6
2015-Mar-19 11:33N 36°03' W 005°10'3 2.4
2015-Mar-19 10:30N 36°00' W 005°10'1 1.4
2015-Mar-19 09:33N 35°59' W 005°11'2 1.7
2015-Mar-19 08:33N 35°58' W 005°11'10 9.8
2015-Mar-19 07:33N 35°58' W 005°23'  
2015-Mar-15 19:22N 33°55' W 007°33'1810.0
2015-Mar-15 17:33N 34°12' W 007°42'14910.6
2015-Mar-15 03:33N 35°58' W 005°36'1110.6
2015-Mar-15 02:33N 36°00' W 005°23'1111.1
2015-Mar-15 01:33N 36°03' W 005°10'  
2015-Mar-12 00:34N 36°38' E 013°45'1212.2
2015-Mar-11 23:33N 36°36' E 013°60'1212.0
2015-Mar-11 22:33N 36°32' E 014°14'1312.1
2015-Mar-11 21:28N 36°29' E 014°30'2811.9
2015-Mar-11 19:07N 36°28' E 015°04'  

Dump ship's entire track history